METAR Data
IDs: Format: Raw Decoded Include TAF

Data at: 1323 UTC 22 Apr 2021

Region: TOP
KATL 221252Z 33004KT 10SM FEW150 FEW250 08/M03 A3023 RMK AO2 SLP241 T00781028

KBOS 221254Z 30021G31KT 10SM FEW045 04/M09 A2963 RMK AO2 PK WND 30031/1250 SLP034 T00391089

KBWI 221254Z 27010G20KT 10SM BKN060 07/M04 A3000 RMK AO2 SLP158 T00671044

KCLE 221251Z 30006KT 10SM FEW045 03/M09 A3006 RMK AO2 SLP204 T00281089

KCLT 221252Z 27003KT 10SM FEW200 SCT250 08/M03 A3019 RMK SLP225 T00781028

KCVG 221252Z 25003KT 10SM SCT046 OVC080 03/01 A3014 RMK AO2 SLP211 BINOVC T00330006

KDCA 221252Z 28009G19KT 10SM BKN055 07/M05 A3004 RMK AO2 SLP171 T00671050

KDEN 221253Z 27008KT 4SM BR SCT016 M02/M03 A2977 RMK AO2 SLP091 T10171033

KDFW 221253Z 13005KT 10SM BKN055 OVC080 12/02 A3019 RMK AO2 SLP218 T01220022

KDTW 221253Z 26004KT 10SM FEW120 02/M07 A3008 RMK AO2 SLP191 T00221067

KEWR 221251Z 30013G26KT 10SM FEW055 06/M09 A2986 RMK AO2 PK WND 29028/1204 SLP111 T00561094

KFLL 221253Z 34006KT 10SM FEW060 FEW090 BKN250 23/15 A3005 RMK AO2 SLP175 T02330150

KIAD 221252Z 30018G26KT 10SM BKN050 07/M06 A3002 RMK AO2 PK WND 30026/1243 SLP168 T00671056

KIAH 221253Z 03006KT 10SM FEW120 SCT250 12/04 A3018 RMK AO2 SLP221 T01170044

KJFK 221251Z 29018G27KT 10SM FEW050 04/M10 A2985 RMK AO2 PK WND 29028/1232 SLP109 T00391100

KLAS 221256Z VRB05KT 10SM FEW150 15/01 A2975 RMK AO2 SLP060 T01500011

KLAX 221253Z 29006KT 10SM FEW015 BKN019 OVC030 14/10 A2993 RMK AO2 SLP133 T01390100 $

KLGA 221251Z 31019G26KT 10SM FEW050 04/M09 A2984 RMK AO2 PK WND 28028/1232 SLP105 T00441089

KMCO 221253Z 01012KT 10SM FEW200 18/10 A3012 RMK AO2 SLP197 T01830100

KMDW 221253Z 26006KT 10SM FEW070 03/M05 A3013 RMK AO2 SLP211 T00331050

KMEM 221254Z 00000KT 10SM FEW200 09/01 A3025 RMK AO2 SLP244 T00890006 $

KMIA 221253Z 33008KT 10SM FEW060 OVC080 23/14 A3006 RMK AO2 SLP179 T02330139 $

KMSP 221253Z 23006KT 10SM CLR 04/M04 A2999 RMK AO2 SLP161 T00441044

KORD 221251Z 26007KT 10SM FEW070 02/M04 A3011 RMK AO2 SLP203 T00221044

KPDX 221253Z 00000KT 10SM OVC023 08/04 A2999 RMK AO2 SLP153 T00830044

KPHL 221254Z 29014G25KT 10SM FEW048 04/M08 A2996 RMK AO2 SLP143 T00441078

KPHX 221251Z 08004KT 10SM FEW120 BKN180 17/M01 A2977 RMK AO2 SLP068 T01721011

KPIT 221251Z 29015G21KT 10SM SCT024 01/M06 A3004 RMK AO2 SLP191 SCT V BKN T00111056

KSAN 221251Z 24007KT 10SM FEW020 BKN027 BKN044 15/09 A2996 RMK AO2 SLP143 T01500089

KSEA 221253Z 19006KT 10SM OVC013 09/06 A2992 RMK AO2 SLP137 T00940061

KSFO 221256Z 24004KT 10SM FEW008 BKN015 BKN017 11/07 A2993 RMK AO2 SLP133 T01110072

KSLC 221254Z 20003KT 10SM FEW050 04/M01 A2980 RMK AO2 SLP075 T00391011

KSTL 221251Z 26005KT 10SM FEW250 04/M03 A3024 RMK AO2 SLP247 T00391033

KTPA 221253Z 02010G17KT 10SM CLR 18/07 A3013 RMK AO2 SLP201 T01830072